Terminal Aerodrome Forecast
Issued by NWS

Home | Current Version | Previous Version | Text Only | Print | Product List | Glossary On
Versions: 1 2 3 4 5 6 7 8 9 10 11 12 13 14 15 16 17
898
FTUS44 KCRP 281735
TAFALI
TAF
KALI 281735Z 2818/2918 15018G25KT P6SM SCT025 BKN040
     FM290200 16009KT P6SM VCSH SCT015 BKN025 OVC100 PROB30
      2909/2915 VRB15G30KT 3SM TSRA BKN012CB OVC020
     FM291600 31008KT P6SM SCT025=

USA.gov is the U.S. government's official web portal to all federal, state and local government web resources and services.